This is the latest recevied weather packets stored in our database for station/object BV1EV-2. If no packets are shown the sender has not sent any weather packets the latest 10 day(s).
| Time | Temp. | Humidity | Pressure | Rain* | Wind** | Luminosity | Snow |
|---|---|---|---|---|---|---|---|
| 1777664268 | 25.56° C | 47% | 1011 hPa | - | - | - | - |
| 1777663068 | 27.22° C | 42% | 1010.9 hPa | - | - | - | - |
| 1777661868 | 27.22° C | 37% | 1010.8 hPa | - | - | - | - |
| 1777660668 | 25° C | 45% | 1010.8 hPa | - | - | - | - |
| 1777659468 | 27.22° C | 37% | 1011.1 hPa | - | - | - | - |
| 1777658268 | 27.78° C | 37% | 1011.2 hPa | - | - | - | - |
| 1777657068 | 28.33° C | 43% | 1011.4 hPa | - | - | - | - |
| 1777655868 | 28.33° C | 38% | 1011.6 hPa | - | - | - | - |
| 1777654668 | 26.67° C | 48% | 1011.9 hPa | - | - | - | - |
| 1777653468 | 26.11° C | 44% | 1011.9 hPa | - | - | - | - |
| 1777652268 | 28.33° C | 37% | 1012.2 hPa | - | - | - | - |
| 1777651068 | 28.33° C | 43% | 1012.3 hPa | - | - | - | - |
| 1777649867 | 28.33° C | 42% | 1012.6 hPa | - | - | - | - |
| 1777648668 | 28.33° C | 42% | 1012.9 hPa | - | - | - | - |
| 1777647468 | 28.89° C | 43% | 1013 hPa | - | - | - | - |
| 1777646268 | 28.89° C | 43% | 1013.1 hPa | - | - | - | - |
| 1777645068 | 28.89° C | 43% | 1013.3 hPa | - | - | - | - |
| 1777643868 | 28.89° C | 44% | 1013.3 hPa | - | - | - | - |
| 1777642667 | 30° C | 46% | 1013.1 hPa | - | - | - | - |
| 1777641467 | 29.44° C | 46% | 1013.2 hPa | - | - | - | - |
| 1777640267 | 27.78° C | 50% | 1013.1 hPa | - | - | - | - |
| 1777639067 | 29.44° C | 45% | 1013.1 hPa | - | - | - | - |
| 1777637867 | 29.44° C | 44% | 1013.1 hPa | - | - | - | - |
| 1777636668 | 28.89° C | 42% | 1012.9 hPa | - | - | - | - |
| 1777635468 | 29.44° C | 42% | 1012.9 hPa | - | - | - | - |
* Rain since midnight (hover to see other rain measurements)
** Current wind speed in m/s (hover to see current wind gust speed)